createdAt,value
2019-03-05T00:00:17.889Z,3.20
2019-03-05T00:01:17.873Z,3.60
2019-03-05T00:02:17.906Z,3.50
2019-03-05T00:03:17.851Z,3.50
2019-03-05T00:04:17.840Z,3.00
2019-03-05T00:05:17.831Z,3.50
2019-03-05T00:06:17.819Z,3.80
2019-03-05T00:07:17.811Z,4.00
2019-03-05T00:08:17.814Z,3.70
2019-03-05T00:09:17.791Z,3.80
2019-03-05T00:10:17.781Z,3.50
2019-03-05T00:11:17.766Z,3.40
2019-03-05T00:12:17.763Z,3.70
2019-03-05T00:13:17.756Z,2.80
2019-03-05T00:14:18.801Z,3.70
2019-03-05T00:15:17.735Z,3.90
2019-03-05T00:16:17.715Z,4.20
2019-03-05T00:17:17.724Z,3.40
2019-03-05T00:18:17.693Z,3.60
2019-03-05T00:19:17.688Z,3.60
2019-03-05T00:20:17.677Z,3.80
2019-03-05T00:21:17.674Z,3.70
2019-03-05T00:22:17.650Z,4.20
2019-03-05T00:23:17.645Z,3.10
2019-03-05T00:24:17.630Z,4.10
2019-03-05T00:25:17.617Z,3.80
2019-03-05T00:26:17.612Z,4.70
2019-03-05T00:27:17.590Z,4.20
2019-03-05T00:28:17.587Z,3.60
2019-03-05T00:29:17.575Z,3.80
2019-03-05T00:30:17.597Z,4.20
2019-03-05T00:31:17.552Z,3.50
2019-03-05T00:32:17.547Z,3.90
2019-03-05T00:33:17.525Z,4.00
2019-03-05T00:34:17.520Z,4.60
2019-03-05T00:35:17.510Z,3.90
2019-03-05T00:36:17.501Z,4.00
2019-03-05T00:37:17.490Z,4.30
2019-03-05T00:38:17.477Z,4.90
2019-03-05T00:39:17.465Z,4.00
2019-03-05T00:40:17.447Z,5.60
2019-03-05T00:41:17.443Z,4.40
2019-03-05T00:42:17.438Z,4.50
2019-03-05T00:43:17.431Z,4.30
2019-03-05T00:44:17.404Z,4.20
2019-03-05T00:45:17.401Z,4.90
2019-03-05T00:46:17.381Z,4.60
2019-03-05T00:47:17.384Z,5.00
2019-03-05T00:48:17.391Z,5.40
2019-03-05T00:49:17.350Z,4.60
2019-03-05T00:50:17.342Z,4.30
2019-03-05T00:51:24.926Z,4.40
2019-03-05T00:52:18.315Z,4.30
2019-03-05T00:53:17.323Z,4.30
2019-03-05T00:54:17.301Z,5.20
2019-03-05T00:55:17.288Z,4.30
2019-03-05T00:56:17.274Z,4.60
2019-03-05T00:57:17.259Z,3.70
2019-03-05T00:58:17.256Z,3.90
2019-03-05T00:59:17.246Z,4.40
2019-03-05T01:00:17.231Z,4.40
2019-03-05T01:01:17.219Z,3.40
2019-03-05T01:02:17.204Z,3.70
2019-03-05T01:03:17.207Z,3.90
2019-03-05T01:04:17.183Z,5.20
2019-03-05T01:05:17.179Z,4.20
2019-03-05T01:06:17.162Z,4.40
2019-03-05T01:07:17.165Z,4.50
2019-03-05T01:08:19.573Z,4.10
2019-03-05T01:09:17.135Z,3.70
2019-03-05T01:10:17.125Z,4.50
2019-03-05T01:11:17.111Z,4.00
2019-03-05T01:12:17.106Z,4.40
2019-03-05T01:13:17.087Z,3.80
2019-03-05T01:14:17.094Z,4.20
2019-03-05T01:15:17.111Z,3.30
2019-03-05T01:16:17.074Z,5.00
2019-03-05T01:17:17.046Z,4.60
2019-03-05T01:18:17.041Z,3.30
2019-03-05T01:19:17.028Z,4.10
2019-03-05T01:20:17.012Z,4.40
2019-03-05T01:21:17.007Z,3.60
2019-03-05T01:22:16.998Z,4.40
2019-03-05T01:23:16.987Z,4.50
2019-03-05T01:24:16.985Z,3.90
2019-03-05T01:25:16.960Z,3.50
2019-03-05T01:26:16.956Z,4.20
2019-03-05T01:27:16.947Z,4.50
2019-03-05T01:28:16.935Z,4.30
2019-03-05T01:29:16.931Z,3.80
2019-03-05T01:30:16.916Z,4.30
2019-03-05T01:31:16.902Z,4.70
2019-03-05T01:32:16.883Z,4.60
2019-03-05T01:33:16.874Z,3.80
2019-03-05T01:34:16.884Z,4.50
2019-03-05T01:35:16.847Z,4.90
2019-03-05T01:36:16.856Z,4.40
2019-03-05T01:37:16.835Z,3.70
2019-03-05T01:38:16.829Z,4.50
2019-03-05T01:39:16.802Z,3.90
2019-03-05T01:40:16.801Z,4.30
2019-03-05T01:41:16.785Z,4.80
2019-03-05T01:42:16.797Z,4.10
2019-03-05T01:43:16.763Z,3.70
2019-03-05T01:44:16.751Z,3.30
2019-03-05T01:45:16.753Z,3.90
2019-03-05T01:46:16.735Z,4.20
2019-03-05T01:47:16.740Z,4.30
2019-03-05T01:48:16.716Z,4.90
2019-03-05T01:49:16.692Z,4.20
2019-03-05T01:50:16.696Z,3.40
2019-03-05T01:51:16.675Z,4.20
2019-03-05T01:52:16.726Z,4.50
2019-03-05T01:53:16.661Z,4.40
2019-03-05T01:54:16.642Z,3.00
2019-03-05T01:55:16.631Z,4.70
2019-03-05T01:56:16.619Z,4.20
2019-03-05T01:57:16.617Z,2.90
2019-03-05T01:58:16.623Z,3.60
2019-03-05T01:59:16.601Z,4.20
2019-03-05T02:00:16.571Z,4.00
2019-03-05T02:01:16.570Z,3.20
2019-03-05T02:02:16.608Z,3.80
2019-03-05T02:03:16.559Z,3.20
2019-03-05T02:04:16.558Z,3.90
2019-03-05T02:05:16.529Z,3.40
2019-03-05T02:06:16.507Z,3.90
2019-03-05T02:07:16.498Z,3.90
2019-03-05T02:08:16.489Z,2.60
2019-03-05T02:09:16.474Z,4.00
2019-03-05T02:10:16.469Z,4.20
2019-03-05T02:11:16.455Z,3.50
2019-03-05T02:12:16.438Z,3.50
2019-03-05T02:13:16.432Z,3.50
2019-03-05T02:14:16.415Z,3.90
2019-03-05T02:15:16.418Z,3.40
2019-03-05T02:16:16.399Z,3.20
2019-03-05T02:17:16.393Z,3.20
2019-03-05T02:18:16.371Z,4.40
2019-03-05T02:19:16.369Z,3.90
2019-03-05T02:20:16.401Z,3.80
2019-03-05T02:21:16.344Z,3.60
2019-03-05T02:22:16.335Z,4.80
2019-03-05T02:23:16.326Z,3.90
2019-03-05T02:24:16.305Z,3.80
2019-03-05T02:25:16.306Z,4.70
2019-03-05T02:26:16.296Z,4.20
2019-03-05T02:27:16.292Z,4.30
2019-03-05T02:28:16.300Z,4.10
2019-03-05T02:29:16.261Z,4.30
2019-03-05T02:30:16.239Z,4.30
2019-03-05T02:31:16.265Z,3.60
2019-03-05T02:32:16.223Z,5.50
2019-03-05T02:33:16.208Z,3.90
2019-03-05T02:34:16.196Z,4.70
2019-03-05T02:35:16.197Z,4.90
2019-03-05T02:36:16.182Z,4.20
2019-03-05T02:37:16.170Z,3.50
2019-03-05T02:38:16.222Z,4.40
2019-03-05T02:39:16.156Z,3.30
2019-03-05T02:40:16.137Z,3.60
2019-03-05T02:41:16.129Z,3.50
2019-03-05T02:42:16.123Z,4.40
2019-03-05T02:43:16.099Z,3.60
2019-03-05T02:44:16.096Z,4.00
2019-03-05T02:45:16.085Z,3.80
2019-03-05T02:46:16.071Z,3.70
2019-03-05T02:47:16.055Z,3.40
2019-03-05T02:48:16.056Z,4.20
2019-03-05T02:49:16.040Z,4.90
2019-03-05T02:50:16.026Z,3.40
2019-03-05T02:51:16.022Z,3.20
2019-03-05T02:52:16.059Z,4.00
2019-03-05T02:53:15.986Z,4.20
2019-03-05T02:54:15.983Z,4.10
2019-03-05T02:55:15.969Z,3.10
2019-03-05T02:56:15.971Z,2.70
2019-03-05T02:57:15.943Z,4.60
2019-03-05T02:58:15.956Z,4.20
2019-03-05T02:59:15.926Z,4.50
2019-03-05T03:00:15.926Z,4.30
2019-03-05T03:01:15.910Z,4.30
2019-03-05T03:02:15.887Z,4.10
2019-03-05T03:03:15.885Z,4.00
2019-03-05T03:04:15.885Z,4.00
2019-03-05T03:05:15.859Z,3.50
2019-03-05T03:06:15.848Z,4.40
2019-03-05T03:07:15.833Z,3.90
2019-03-05T03:08:15.954Z,3.40
2019-03-05T03:09:15.851Z,3.70
2019-03-05T03:10:15.810Z,3.80
2019-03-05T03:11:15.806Z,3.70
2019-03-05T03:12:15.787Z,3.40
2019-03-05T03:13:15.774Z,3.30
2019-03-05T03:14:15.760Z,3.40
2019-03-05T03:15:15.767Z,3.10
2019-03-05T03:16:15.735Z,3.00
2019-03-05T03:17:15.726Z,2.80
2019-03-05T03:18:15.721Z,2.40
2019-03-05T03:19:15.707Z,2.60
2019-03-05T03:20:15.702Z,3.00
2019-03-05T03:21:15.688Z,2.90
2019-03-05T03:22:15.674Z,2.70
2019-03-05T03:23:15.660Z,2.90
2019-03-05T03:24:15.647Z,2.20
2019-03-05T03:25:15.689Z,2.60
2019-03-05T03:26:15.626Z,2.70
2019-03-05T03:27:15.612Z,2.50
2019-03-05T03:28:15.602Z,2.00
2019-03-05T03:29:15.595Z,2.70
2019-03-05T03:30:15.611Z,2.40
2019-03-05T03:31:15.585Z,2.30
2019-03-05T03:32:15.562Z,2.00
2019-03-05T03:33:15.551Z,2.80
2019-03-05T03:34:15.547Z,3.00
2019-03-05T03:35:15.531Z,3.00
2019-03-05T03:36:15.527Z,2.20
2019-03-05T03:37:15.512Z,2.30
2019-03-05T03:38:15.497Z,2.10
2019-03-05T03:39:15.487Z,2.50
2019-03-05T03:40:15.483Z,2.80
2019-03-05T03:41:15.469Z,2.20
2019-03-05T03:42:15.468Z,2.40
2019-03-05T03:43:15.439Z,2.40
2019-03-05T03:44:15.428Z,3.20
2019-03-05T03:45:15.416Z,2.50
2019-03-05T03:46:15.442Z,2.20
2019-03-05T03:47:15.392Z,2.20
2019-03-05T03:48:15.391Z,2.10
2019-03-05T03:49:15.374Z,1.80
2019-03-05T03:50:15.371Z,2.50
2019-03-05T03:51:15.349Z,2.20
2019-03-05T03:52:15.376Z,2.00
2019-03-05T03:53:15.333Z,2.20
2019-03-05T03:54:15.322Z,1.80
2019-03-05T03:55:15.314Z,2.20
2019-03-05T03:56:15.303Z,2.20
2019-03-05T03:57:15.296Z,2.30
2019-03-05T03:58:15.287Z,2.20
2019-03-05T03:59:15.267Z,3.30
2019-03-05T04:00:15.253Z,2.00
2019-03-05T04:01:15.246Z,1.90
2019-03-05T04:02:15.236Z,2.40
2019-03-05T04:03:15.245Z,3.10
2019-03-05T04:04:15.208Z,2.10
2019-03-05T04:05:15.202Z,2.60
2019-03-05T04:06:15.192Z,2.00
2019-03-05T04:07:15.180Z,2.10
2019-03-05T04:08:15.165Z,2.40
2019-03-05T04:09:15.166Z,2.20
2019-03-05T04:10:15.163Z,2.40
2019-03-05T04:11:15.141Z,2.40
2019-03-05T04:12:15.128Z,2.20
2019-03-05T04:13:15.116Z,2.50
2019-03-05T04:14:15.121Z,2.10
2019-03-05T04:15:15.108Z,2.00
2019-03-05T04:16:15.084Z,1.90
2019-03-05T04:17:15.071Z,2.20
2019-03-05T04:18:15.063Z,2.40
2019-03-05T04:19:15.066Z,2.30
2019-03-05T04:20:15.039Z,2.50
2019-03-05T04:21:15.031Z,2.50
2019-03-05T04:22:15.013Z,2.50
2019-03-05T04:23:15.001Z,2.40
2019-03-05T04:24:15.006Z,2.40
2019-03-05T04:25:14.990Z,2.50
2019-03-05T04:26:14.973Z,2.70
2019-03-05T04:27:14.962Z,2.40
2019-03-05T04:28:14.953Z,2.40
2019-03-05T04:29:14.956Z,3.30
2019-03-05T04:30:14.926Z,2.60
2019-03-05T04:31:14.917Z,2.90
2019-03-05T04:32:14.905Z,2.60
2019-03-05T04:33:14.893Z,2.70
2019-03-05T04:34:14.886Z,2.80
2019-03-05T04:35:14.876Z,2.90
2019-03-05T04:36:14.869Z,2.60
2019-03-05T04:37:14.855Z,2.70
2019-03-05T04:38:14.843Z,3.00
2019-03-05T04:39:14.822Z,2.60
2019-03-05T04:40:14.819Z,3.20
2019-03-05T04:41:14.811Z,2.40
2019-03-05T04:42:14.790Z,2.20
2019-03-05T04:43:14.780Z,2.90
2019-03-05T04:44:14.772Z,2.70
2019-03-05T04:45:14.756Z,3.10
2019-03-05T04:46:14.762Z,2.90
2019-03-05T04:47:14.740Z,2.80
2019-03-05T04:48:14.728Z,3.00
2019-03-05T04:49:14.718Z,3.20
2019-03-05T04:50:14.702Z,3.20
2019-03-05T04:51:14.708Z,3.30
2019-03-05T04:52:14.688Z,3.10
2019-03-05T04:53:14.676Z,3.40
2019-03-05T04:54:14.663Z,2.40
2019-03-05T04:55:14.656Z,2.90
2019-03-05T04:56:14.646Z,2.90
2019-03-05T04:57:14.635Z,3.00
2019-03-05T04:58:14.616Z,3.30
2019-03-05T04:59:14.609Z,3.00
2019-03-05T05:00:14.596Z,3.10
2019-03-05T05:01:14.623Z,3.20
2019-03-05T05:02:14.610Z,2.70
2019-03-05T05:03:14.569Z,3.60
2019-03-05T05:04:14.556Z,2.80
2019-03-05T05:05:14.549Z,3.00
2019-03-05T05:06:14.535Z,3.30
2019-03-05T05:07:14.531Z,3.50
2019-03-05T05:08:14.508Z,3.60
2019-03-05T05:09:14.517Z,3.70
2019-03-05T05:10:14.492Z,4.00
2019-03-05T05:11:14.483Z,3.80
2019-03-05T05:12:14.480Z,3.70
2019-03-05T05:13:14.453Z,3.60
2019-03-05T05:14:14.448Z,3.20
2019-03-05T05:15:14.438Z,2.90
2019-03-05T05:16:14.421Z,4.10
2019-03-05T05:17:14.422Z,4.20
2019-03-05T05:18:14.427Z,3.80
2019-03-05T05:19:14.397Z,3.80
2019-03-05T05:20:14.409Z,3.50
2019-03-05T05:21:14.373Z,3.70
2019-03-05T05:22:14.356Z,4.10
2019-03-05T05:23:14.346Z,3.60
2019-03-05T05:24:14.348Z,3.90
2019-03-05T05:25:14.335Z,4.80
2019-03-05T05:26:14.319Z,4.20
2019-03-05T05:27:14.308Z,4.00
2019-03-05T05:28:14.298Z,4.50
2019-03-05T05:29:14.294Z,4.60
2019-03-05T05:30:14.286Z,4.60
2019-03-05T05:31:14.263Z,4.60
2019-03-05T05:32:14.255Z,4.20
2019-03-05T05:33:14.239Z,5.10
2019-03-05T05:34:14.240Z,4.50
2019-03-05T05:35:14.219Z,4.10
2019-03-05T05:36:14.225Z,4.40
2019-03-05T05:37:14.211Z,4.90
2019-03-05T05:38:14.200Z,4.70
2019-03-05T05:39:14.181Z,3.80
2019-03-05T05:40:14.181Z,4.90
2019-03-05T05:41:14.162Z,5.60
2019-03-05T05:42:14.149Z,4.90
2019-03-05T05:43:14.131Z,4.90
2019-03-05T05:44:14.123Z,3.90
2019-03-05T05:45:14.107Z,4.60
2019-03-05T05:46:14.095Z,4.90
2019-03-05T05:47:14.088Z,4.80
2019-03-05T05:48:14.081Z,4.60
2019-03-05T05:49:14.071Z,5.50
2019-03-05T05:50:14.060Z,3.90
2019-03-05T05:51:14.046Z,5.30
2019-03-05T05:52:14.048Z,6.00
2019-03-05T05:53:14.028Z,4.50
2019-03-05T05:54:14.010Z,5.70
2019-03-05T05:55:14.006Z,4.20
2019-03-05T05:56:13.996Z,4.30
2019-03-05T05:57:13.983Z,3.70
2019-03-05T05:58:13.971Z,5.30
2019-03-05T05:59:13.962Z,5.50
2019-03-05T06:00:13.944Z,4.50
2019-03-05T06:01:13.936Z,5.40
2019-03-05T06:02:13.923Z,4.90
2019-03-05T06:03:13.955Z,4.80
2019-03-05T06:04:13.907Z,4.70
2019-03-05T06:05:13.898Z,4.50
2019-03-05T06:06:13.879Z,5.80
2019-03-05T06:07:13.874Z,4.80
2019-03-05T06:08:13.858Z,5.90
2019-03-05T06:09:13.880Z,5.70
2019-03-05T06:10:13.846Z,5.00
2019-03-05T06:11:13.837Z,5.20
2019-03-05T06:12:13.823Z,5.90
2019-03-05T06:13:13.814Z,5.50
2019-03-05T06:14:14.452Z,5.60
2019-03-05T06:15:13.784Z,6.30
2019-03-05T06:16:13.784Z,5.60
2019-03-05T06:17:13.779Z,5.40
2019-03-05T06:18:13.755Z,5.00
2019-03-05T06:19:13.907Z,5.60
2019-03-05T06:20:13.728Z,4.30
2019-03-05T06:21:13.724Z,5.70
2019-03-05T06:22:13.723Z,5.30
2019-03-05T06:23:13.700Z,5.40
2019-03-05T06:24:13.685Z,5.40
2019-03-05T06:25:13.682Z,4.20
2019-03-05T06:26:13.671Z,5.50
2019-03-05T06:27:13.657Z,5.10
2019-03-05T06:28:13.653Z,5.70
2019-03-05T06:29:13.634Z,4.40
2019-03-05T06:30:13.631Z,5.10
2019-03-05T06:31:13.626Z,5.60
2019-03-05T06:32:13.603Z,4.60
2019-03-05T06:33:13.596Z,5.60
2019-03-05T06:34:13.595Z,5.60
2019-03-05T06:35:13.581Z,5.80
2019-03-05T06:36:13.560Z,3.90
2019-03-05T06:37:13.544Z,5.20
2019-03-05T06:38:13.535Z,5.40
2019-03-05T06:39:13.533Z,5.10
2019-03-05T06:40:13.555Z,4.50
2019-03-05T06:41:13.500Z,4.30
2019-03-05T06:42:13.490Z,4.30
2019-03-05T06:43:13.485Z,4.80
2019-03-05T06:44:13.473Z,4.50
2019-03-05T06:45:13.464Z,4.20
2019-03-05T06:46:13.464Z,5.50
2019-03-05T06:47:13.442Z,4.90
2019-03-05T06:48:13.429Z,4.90
2019-03-05T06:49:13.419Z,5.00
2019-03-05T06:50:13.435Z,5.30
2019-03-05T06:51:13.405Z,4.80
2019-03-05T06:52:13.388Z,4.80
2019-03-05T06:53:13.370Z,4.50
2019-03-05T06:54:13.358Z,3.60
2019-03-05T06:55:13.353Z,4.70
2019-03-05T06:56:13.353Z,4.70
2019-03-05T06:57:13.328Z,4.00
2019-03-05T06:58:13.315Z,4.70
2019-03-05T06:59:13.355Z,4.50
2019-03-05T07:00:13.293Z,4.30
2019-03-05T07:01:13.321Z,4.90
2019-03-05T07:02:13.273Z,4.70
2019-03-05T07:03:13.272Z,4.90
2019-03-05T07:04:13.252Z,4.80
2019-03-05T07:05:13.240Z,4.20
2019-03-05T07:06:13.231Z,5.30
2019-03-05T07:07:13.261Z,5.20
2019-03-05T07:08:13.210Z,4.90
2019-03-05T07:09:13.199Z,4.60
2019-03-05T07:10:13.261Z,5.70
2019-03-05T07:11:13.174Z,4.60
2019-03-05T07:12:13.164Z,3.80
2019-03-05T07:13:13.184Z,4.10
2019-03-05T07:14:13.511Z,4.70
2019-03-05T07:15:13.129Z,4.90
2019-03-05T07:16:13.118Z,4.60
2019-03-05T07:17:13.106Z,4.90
2019-03-05T07:18:13.092Z,4.30
2019-03-05T07:19:13.098Z,3.80
2019-03-05T07:20:13.080Z,4.70
2019-03-05T07:21:13.055Z,5.00
2019-03-05T07:22:13.049Z,4.90
2019-03-05T07:23:13.059Z,5.20
2019-03-05T07:24:13.031Z,4.60
2019-03-05T07:25:13.014Z,3.90
2019-03-05T07:26:13.012Z,4.40
2019-03-05T07:27:12.995Z,5.90
2019-03-05T07:28:12.982Z,4.90
2019-03-05T07:29:12.990Z,4.40
2019-03-05T07:30:13.002Z,4.90
2019-03-05T07:31:12.950Z,4.00
2019-03-05T07:32:13.046Z,3.20
2019-03-05T07:33:12.931Z,3.90
2019-03-05T07:34:12.913Z,4.90
2019-03-05T07:35:12.905Z,4.00
2019-03-05T07:36:12.896Z,4.20
2019-03-05T07:37:12.893Z,3.80
2019-03-05T07:38:12.868Z,4.40
2019-03-05T07:39:12.857Z,4.10
2019-03-05T07:40:12.856Z,3.80
2019-03-05T07:41:12.833Z,4.40
2019-03-05T07:42:12.828Z,4.30
2019-03-05T07:43:12.813Z,3.90
2019-03-05T07:44:12.804Z,3.90
2019-03-05T07:45:12.828Z,4.40
2019-03-05T07:46:12.792Z,4.20
2019-03-05T07:47:12.776Z,4.30
2019-03-05T07:48:12.759Z,4.80
2019-03-05T07:49:12.765Z,3.30
2019-03-05T07:50:12.741Z,4.20
2019-03-05T07:51:12.780Z,4.60
2019-03-05T07:52:12.725Z,4.40
2019-03-05T07:53:12.700Z,4.50
2019-03-05T07:54:12.696Z,3.90
2019-03-05T07:55:13.951Z,3.90
2019-03-05T07:56:12.682Z,4.90
2019-03-05T07:57:12.661Z,4.10
2019-03-05T07:58:12.651Z,5.00
2019-03-05T07:59:12.642Z,5.20
2019-03-05T08:00:12.622Z,5.50
2019-03-05T08:01:21.768Z,5.30
2019-03-05T08:02:13.598Z,5.10
2019-03-05T08:03:12.596Z,4.50
2019-03-05T08:04:12.579Z,4.90
2019-03-05T08:05:12.585Z,4.20
2019-03-05T08:06:12.568Z,3.70
2019-03-05T08:07:12.561Z,2.30
2019-03-05T08:08:12.541Z,3.40
2019-03-05T08:09:12.528Z,2.70
2019-03-05T08:10:12.512Z,3.60
2019-03-05T08:11:12.546Z,4.20
2019-03-05T08:12:12.496Z,2.50
2019-03-05T08:13:12.487Z,2.70
2019-03-05T08:14:12.469Z,2.90
2019-03-05T08:15:12.465Z,3.40
2019-03-05T08:16:12.452Z,3.50
2019-03-05T08:17:12.452Z,3.20
2019-03-05T08:18:12.428Z,3.10
2019-03-05T08:19:12.416Z,2.40
2019-03-05T08:20:12.412Z,3.00
2019-03-05T08:21:12.397Z,2.80
2019-03-05T08:22:12.393Z,3.10
2019-03-05T08:23:12.372Z,2.40
2019-03-05T08:24:12.362Z,3.10
2019-03-05T08:25:12.348Z,2.50
2019-03-05T08:26:12.340Z,2.30
2019-03-05T08:27:12.412Z,2.90
2019-03-05T08:28:12.355Z,2.30
2019-03-05T08:29:12.336Z,3.10
2019-03-05T08:30:14.656Z,2.90
2019-03-05T08:31:12.288Z,2.60
2019-03-05T08:32:12.275Z,2.80
2019-03-05T08:33:12.269Z,3.50
2019-03-05T08:34:12.276Z,2.90
2019-03-05T08:35:12.241Z,2.40
2019-03-05T08:36:12.233Z,2.90
2019-03-05T08:37:13.488Z,2.90
2019-03-05T08:38:12.210Z,3.20
2019-03-05T08:39:12.257Z,3.60
2019-03-05T08:40:12.193Z,3.10
2019-03-05T08:41:12.173Z,3.30
2019-03-05T08:42:12.185Z,3.80
2019-03-05T08:43:12.146Z,3.40
2019-03-05T08:44:12.134Z,3.00
2019-03-05T08:45:12.143Z,3.30
2019-03-05T08:46:12.132Z,3.70
2019-03-05T08:47:12.111Z,2.50
2019-03-05T08:48:12.119Z,2.80
2019-03-05T08:49:12.087Z,3.90
2019-03-05T08:50:12.089Z,3.20
2019-03-05T08:51:12.083Z,3.70
2019-03-05T08:52:12.062Z,3.10
2019-03-05T08:53:12.075Z,3.50
2019-03-05T08:54:12.070Z,3.60
2019-03-05T08:55:12.044Z,2.80
2019-03-05T08:56:12.013Z,3.50
2019-03-05T08:57:12.001Z,3.10
2019-03-05T08:58:11.984Z,2.90
2019-03-05T08:59:11.970Z,3.40
2019-03-05T09:00:11.977Z,3.10
2019-03-05T09:01:11.994Z,3.20
2019-03-05T09:02:11.987Z,3.20
2019-03-05T09:03:11.932Z,2.70
2019-03-05T09:04:11.925Z,2.90
2019-03-05T09:05:11.922Z,3.30
2019-03-05T09:06:11.904Z,2.20
2019-03-05T09:07:11.902Z,3.10
2019-03-05T09:08:11.873Z,3.20
2019-03-05T09:09:11.862Z,2.30
2019-03-05T09:10:11.856Z,3.40
2019-03-05T09:11:11.845Z,3.20
2019-03-05T09:12:11.867Z,3.30
2019-03-05T09:13:11.824Z,3.30
2019-03-05T09:14:11.812Z,2.50
2019-03-05T09:15:11.805Z,2.80
2019-03-05T09:16:11.789Z,2.30
2019-03-05T09:17:11.781Z,3.30
2019-03-05T09:18:11.772Z,3.00
2019-03-05T09:19:11.758Z,3.10
2019-03-05T09:20:11.759Z,2.60
2019-03-05T09:21:11.740Z,3.20
2019-03-05T09:22:11.734Z,3.20
2019-03-05T09:23:11.715Z,2.30
2019-03-05T09:24:11.705Z,2.70
2019-03-05T09:25:11.692Z,1.90
2019-03-05T09:26:11.684Z,2.20
2019-03-05T09:27:11.684Z,2.80
2019-03-05T09:28:11.670Z,2.40
2019-03-05T09:29:11.670Z,2.90
2019-03-05T09:30:11.637Z,2.60
2019-03-05T09:31:11.626Z,1.70
2019-03-05T09:32:11.610Z,2.40
2019-03-05T09:33:11.625Z,2.50
2019-03-05T09:34:11.588Z,2.20
2019-03-05T09:35:11.582Z,2.80
2019-03-05T09:36:11.566Z,1.90
2019-03-05T09:37:11.571Z,2.20
2019-03-05T09:38:11.562Z,2.90
2019-03-05T09:39:11.541Z,2.70
2019-03-05T09:40:11.536Z,2.50
2019-03-05T09:41:11.513Z,2.70
2019-03-05T09:42:11.505Z,2.90
2019-03-05T09:43:11.513Z,3.10
2019-03-05T09:44:11.477Z,2.70
2019-03-05T09:45:11.467Z,2.30
2019-03-05T09:46:11.457Z,2.30
2019-03-05T09:47:11.444Z,2.40
2019-03-05T09:48:11.434Z,2.90
2019-03-05T09:49:11.431Z,2.50
2019-03-05T09:50:11.416Z,2.60
2019-03-05T09:51:11.400Z,2.50
2019-03-05T09:52:11.391Z,2.20
2019-03-05T09:53:11.379Z,2.80
2019-03-05T09:54:11.377Z,2.40
2019-03-05T09:55:11.367Z,2.40
2019-03-05T09:56:11.347Z,1.90
2019-03-05T09:57:11.337Z,2.20
2019-03-05T09:58:11.323Z,3.10
2019-03-05T09:59:11.350Z,2.80
2019-03-05T10:00:11.307Z,3.30
2019-03-05T10:01:11.290Z,3.30
2019-03-05T10:02:11.278Z,2.60
2019-03-05T10:03:11.273Z,2.40
2019-03-05T10:04:11.266Z,2.90
2019-03-05T10:05:11.559Z,2.70
2019-03-05T10:06:11.238Z,3.30
2019-03-05T10:07:18.587Z,2.80
2019-03-05T10:08:12.390Z,3.80
2019-03-05T10:09:11.207Z,2.90
2019-03-05T10:10:11.220Z,3.10
2019-03-05T10:11:11.218Z,3.10
2019-03-05T10:12:11.176Z,2.90
2019-03-05T10:13:13.224Z,2.80
2019-03-05T10:14:11.160Z,3.00
2019-03-05T10:15:11.152Z,2.70
2019-03-05T10:16:11.135Z,2.40
2019-03-05T10:17:11.114Z,2.40
2019-03-05T10:18:12.982Z,3.20
2019-03-05T10:19:11.100Z,3.20
2019-03-05T10:20:11.083Z,2.70
2019-03-05T10:21:12.082Z,1.80
2019-03-05T10:22:11.064Z,2.60
2019-03-05T10:23:11.045Z,2.80
2019-03-05T10:24:11.174Z,2.90
2019-03-05T10:25:12.880Z,3.30
2019-03-05T10:26:11.062Z,2.30
2019-03-05T10:27:11.008Z,2.50
2019-03-05T10:28:10.988Z,3.40
2019-03-05T10:29:10.983Z,3.20
2019-03-05T10:30:10.969Z,3.50
2019-03-05T10:31:10.957Z,3.60
2019-03-05T10:32:10.953Z,3.00
2019-03-05T10:33:10.933Z,3.10
2019-03-05T10:34:10.929Z,3.20
2019-03-05T10:35:10.920Z,2.50
2019-03-05T10:36:10.950Z,2.30
2019-03-05T10:37:14.694Z,3.30
2019-03-05T10:38:11.883Z,3.40
2019-03-05T10:39:10.873Z,3.50
2019-03-05T10:40:10.858Z,2.60
2019-03-05T10:41:10.854Z,2.70
2019-03-05T10:42:10.890Z,2.90
2019-03-05T10:43:10.830Z,3.30
2019-03-05T10:44:10.816Z,3.00
2019-03-05T10:45:10.803Z,2.90
2019-03-05T10:46:10.799Z,3.20
2019-03-05T10:47:10.823Z,3.00
2019-03-05T10:48:10.774Z,3.40
2019-03-05T10:49:10.772Z,3.20
2019-03-05T10:50:15.223Z,3.40
2019-03-05T10:51:11.733Z,3.30
2019-03-05T10:52:10.732Z,3.50
2019-03-05T10:53:10.722Z,3.70
2019-03-05T10:54:10.705Z,3.80
2019-03-05T10:55:10.689Z,3.60
2019-03-05T10:56:10.685Z,3.60
2019-03-05T10:57:10.666Z,4.10
2019-03-05T10:58:10.686Z,3.80
2019-03-05T10:59:10.657Z,2.50
2019-03-05T11:00:10.631Z,3.10
2019-03-05T11:01:10.624Z,2.90
2019-03-05T11:02:10.609Z,3.30
2019-03-05T11:03:10.603Z,3.30
2019-03-05T11:04:10.597Z,3.60
2019-03-05T11:05:10.576Z,3.60
2019-03-05T11:06:10.571Z,3.30
2019-03-05T11:07:10.568Z,3.30
2019-03-05T11:08:10.545Z,2.90
2019-03-05T11:09:10.552Z,2.90
2019-03-05T11:10:10.525Z,2.60
2019-03-05T11:11:13.747Z,3.10
2019-03-05T11:12:10.501Z,2.60
2019-03-05T11:13:10.489Z,2.30
2019-03-05T11:14:10.481Z,2.30
2019-03-05T11:15:10.470Z,2.80
2019-03-05T11:16:10.461Z,2.60
2019-03-05T11:17:10.464Z,2.80
2019-03-05T11:18:10.434Z,3.00
2019-03-05T11:19:10.426Z,3.40
2019-03-05T11:20:10.419Z,2.60
2019-03-05T11:21:10.400Z,2.70
2019-03-05T11:22:10.406Z,2.60
2019-03-05T11:23:11.730Z,2.70
2019-03-05T11:24:10.375Z,3.00
2019-03-05T11:25:10.374Z,2.50
2019-03-05T11:26:10.357Z,2.90
2019-03-05T11:27:10.338Z,2.80
2019-03-05T11:28:10.324Z,2.90
2019-03-05T11:29:10.316Z,3.10
2019-03-05T11:30:10.320Z,2.20
2019-03-05T11:31:10.300Z,2.40
2019-03-05T11:32:10.276Z,2.70
2019-03-05T11:33:10.273Z,2.60
2019-03-05T11:34:10.258Z,2.00
2019-03-05T11:35:10.247Z,2.90
2019-03-05T11:36:10.240Z,2.50
2019-03-05T11:37:10.220Z,2.20
2019-03-05T11:38:10.215Z,2.80
2019-03-05T11:39:10.197Z,2.70
2019-03-05T11:40:20.503Z,2.10
2019-03-05T11:41:11.187Z,2.70
2019-03-05T11:42:10.174Z,2.30
2019-03-05T11:43:10.161Z,2.60
2019-03-05T11:44:10.143Z,2.50
2019-03-05T11:45:11.718Z,2.40
2019-03-05T11:46:10.248Z,2.40
2019-03-05T11:47:10.114Z,2.70
2019-03-05T11:48:10.105Z,2.80
2019-03-05T11:49:10.087Z,2.80
2019-03-05T11:50:10.084Z,2.50
2019-03-05T11:51:10.072Z,2.70
2019-03-05T11:52:10.057Z,2.90
2019-03-05T11:53:10.040Z,2.80
2019-03-05T11:54:10.031Z,2.40
2019-03-05T11:55:10.024Z,2.10
2019-03-05T11:56:10.023Z,2.00
2019-03-05T11:57:09.996Z,2.40
2019-03-05T11:58:10.004Z,2.50
2019-03-05T11:59:09.982Z,2.50
2019-03-05T12:00:09.971Z,2.70
2019-03-05T12:01:09.963Z,2.30
2019-03-05T12:02:21.045Z,2.60
2019-03-05T12:03:10.930Z,2.30
2019-03-05T12:04:09.925Z,2.30
2019-03-05T12:05:09.914Z,2.00
2019-03-05T12:06:09.899Z,2.20
2019-03-05T12:07:09.923Z,3.00
2019-03-05T12:08:09.874Z,2.50
2019-03-05T12:09:09.875Z,2.20
2019-03-05T12:10:09.857Z,2.40
2019-03-05T12:11:09.846Z,2.10
2019-03-05T12:12:09.833Z,2.50
2019-03-05T12:13:09.822Z,2.60
2019-03-05T12:14:09.808Z,1.90
2019-03-05T12:15:09.804Z,2.00
2019-03-05T12:16:09.791Z,2.20
2019-03-05T12:17:09.778Z,1.90
2019-03-05T12:18:09.805Z,2.40
2019-03-05T12:19:09.755Z,2.20
2019-03-05T12:20:09.744Z,2.30
2019-03-05T12:21:09.728Z,2.60
2019-03-05T12:22:09.719Z,2.90
2019-03-05T12:23:10.426Z,2.10
2019-03-05T12:24:09.699Z,2.80
2019-03-05T12:25:09.684Z,2.10
2019-03-05T12:26:09.674Z,2.90
2019-03-05T12:27:09.661Z,2.90
2019-03-05T12:28:10.960Z,2.40
2019-03-05T12:29:09.649Z,2.60
2019-03-05T12:30:09.628Z,2.40
2019-03-05T12:31:09.624Z,2.50
2019-03-05T12:32:09.615Z,2.30
2019-03-05T12:33:09.605Z,3.10
2019-03-05T12:34:09.594Z,2.80
2019-03-05T12:35:09.584Z,3.60
2019-03-05T12:36:09.565Z,3.20
2019-03-05T12:37:09.568Z,3.00
2019-03-05T12:38:09.545Z,3.50
2019-03-05T12:39:09.542Z,3.70
2019-03-05T12:40:09.525Z,4.00
2019-03-05T12:41:09.506Z,3.90
2019-03-05T12:42:09.500Z,3.60
2019-03-05T12:43:09.483Z,3.90
2019-03-05T12:44:09.480Z,3.20
2019-03-05T12:45:09.495Z,3.30
2019-03-05T12:46:09.456Z,3.60
2019-03-05T12:47:09.444Z,3.60
2019-03-05T12:48:09.435Z,2.90
2019-03-05T12:49:09.419Z,3.10
2019-03-05T12:50:09.421Z,3.40
2019-03-05T12:51:09.402Z,3.00
2019-03-05T12:52:09.396Z,3.40
2019-03-05T12:53:09.375Z,3.30
2019-03-05T12:54:09.368Z,3.20
2019-03-05T12:55:09.370Z,3.00
2019-03-05T12:56:09.351Z,3.40
2019-03-05T12:57:09.333Z,3.50
2019-03-05T12:58:09.322Z,3.20
2019-03-05T12:59:09.306Z,3.20
2019-03-05T13:00:09.301Z,2.90
2019-03-05T13:01:09.299Z,2.80
2019-03-05T13:02:09.285Z,2.80
2019-03-05T13:03:09.268Z,2.90
2019-03-05T13:04:09.254Z,2.80
2019-03-05T13:05:09.249Z,3.10
2019-03-05T13:06:09.271Z,2.40
2019-03-05T13:07:09.226Z,2.80
2019-03-05T13:08:09.211Z,2.70
2019-03-05T13:09:09.205Z,2.50
2019-03-05T13:10:09.190Z,3.00
2019-03-05T13:11:12.554Z,2.70
2019-03-05T13:12:09.179Z,2.80
2019-03-05T13:13:10.352Z,2.70
2019-03-05T13:14:12.134Z,2.50
2019-03-05T13:15:09.128Z,2.80
2019-03-05T13:16:09.117Z,2.80
2019-03-05T13:17:09.122Z,3.10
2019-03-05T13:18:09.097Z,2.30